createdAt,value
2019-02-12T00:01:54.926Z,4.92
2019-02-12T00:04:23.591Z,5.24
2019-02-12T00:06:52.174Z,5.18
2019-02-12T00:09:20.799Z,5.04
2019-02-12T00:11:49.400Z,5.07
2019-02-12T00:14:18.012Z,5.50
2019-02-12T00:16:46.579Z,5.55
2019-02-12T00:19:15.176Z,4.55
2019-02-12T00:21:43.834Z,5.41
2019-02-12T00:24:12.468Z,4.18
2019-02-12T00:26:41.050Z,5.17
2019-02-12T00:29:09.761Z,5.51
2019-02-12T00:31:38.348Z,5.60
2019-02-12T00:34:06.964Z,5.35
2019-02-12T00:36:35.557Z,5.51
2019-02-12T00:39:05.032Z,5.18
2019-02-12T00:41:33.622Z,4.42
2019-02-12T00:44:02.233Z,4.82
2019-02-12T00:46:30.829Z,4.41
2019-02-12T00:48:59.667Z,5.25
2019-02-12T00:51:28.245Z,3.81
2019-02-12T00:53:56.862Z,4.99
2019-02-12T00:56:25.447Z,5.56
2019-02-12T00:58:54.057Z,5.58
2019-02-12T01:01:22.636Z,5.27
2019-02-12T01:03:51.279Z,5.54
2019-02-12T01:06:19.833Z,5.60
2019-02-12T01:08:48.469Z,5.11
2019-02-12T01:11:17.072Z,4.56
2019-02-12T01:13:45.669Z,4.97
2019-02-12T01:16:14.365Z,4.73
2019-02-12T01:18:42.966Z,4.71
2019-02-12T01:21:11.558Z,4.96
2019-02-12T01:23:40.157Z,4.52
2019-02-12T01:26:08.758Z,4.99
2019-02-12T01:28:37.347Z,5.60
2019-02-12T01:31:05.961Z,4.21
2019-02-12T01:33:34.544Z,4.62
2019-02-12T01:36:03.155Z,4.11
2019-02-12T01:38:31.742Z,4.08
2019-02-12T01:41:00.352Z,4.62
2019-02-12T01:43:28.933Z,3.67
2019-02-12T01:45:57.532Z,4.65
2019-02-12T01:48:26.117Z,4.21
2019-02-12T01:50:54.713Z,4.96
2019-02-12T01:53:23.354Z,4.40
2019-02-12T01:55:51.906Z,3.73
2019-02-12T01:58:20.487Z,4.81
2019-02-12T02:00:49.087Z,4.29
2019-02-12T02:03:17.668Z,4.45
2019-02-12T02:05:46.279Z,4.63
2019-02-12T02:08:14.890Z,4.67
2019-02-12T02:10:43.508Z,5.08
2019-02-12T02:13:12.138Z,4.23
2019-02-12T02:15:40.797Z,4.26
2019-02-12T02:18:09.413Z,4.23
2019-02-12T02:20:37.993Z,4.58
2019-02-12T02:23:06.665Z,3.95
2019-02-12T02:25:35.245Z,4.51
2019-02-12T02:28:03.845Z,4.33
2019-02-12T02:30:32.489Z,4.53
2019-02-12T02:33:01.071Z,5.13
2019-02-12T02:35:29.653Z,5.43
2019-02-12T02:37:58.256Z,4.52
2019-02-12T02:40:26.848Z,4.19
2019-02-12T02:42:55.442Z,4.38
2019-02-12T02:45:24.025Z,4.85
2019-02-12T02:47:52.631Z,4.29
2019-02-12T02:50:21.254Z,5.12
2019-02-12T02:52:49.832Z,5.55
2019-02-12T02:55:18.445Z,4.51
2019-02-12T02:57:47.035Z,4.77
2019-02-12T03:00:15.834Z,4.60
2019-02-12T03:02:44.425Z,5.09
2019-02-12T03:05:13.048Z,4.81
2019-02-12T03:07:41.729Z,5.88
2019-02-12T03:10:10.538Z,5.55
2019-02-12T03:12:39.147Z,5.20
2019-02-12T03:15:08.674Z,5.63
2019-02-12T03:17:37.272Z,4.25
2019-02-12T03:20:06.614Z,4.39
2019-02-12T03:22:35.209Z,4.04
2019-02-12T03:25:03.957Z,4.90
2019-02-12T03:27:32.547Z,4.75
2019-02-12T03:30:01.130Z,4.58
2019-02-12T03:32:29.772Z,5.20
2019-02-12T03:34:58.363Z,4.31
2019-02-12T03:37:26.962Z,4.82
2019-02-12T03:39:55.545Z,5.12
2019-02-12T03:42:24.136Z,4.38
2019-02-12T03:44:52.958Z,4.14
2019-02-12T03:47:21.639Z,4.93
2019-02-12T03:49:50.238Z,4.43
2019-02-12T03:52:19.513Z,4.46
2019-02-12T03:54:48.623Z,4.52
2019-02-12T03:57:17.229Z,4.90
2019-02-12T03:59:45.885Z,4.42
2019-02-12T04:02:14.562Z,4.41
2019-02-12T04:04:43.234Z,5.31
2019-02-12T04:07:11.840Z,5.27
2019-02-12T04:09:40.445Z,5.27
2019-02-12T04:12:09.124Z,5.34
2019-02-12T04:14:37.992Z,5.01
2019-02-12T04:17:06.612Z,4.31
2019-02-12T04:19:35.194Z,4.60
2019-02-12T04:22:03.794Z,4.89
2019-02-12T04:24:32.403Z,4.81
2019-02-12T04:27:00.999Z,4.12
2019-02-12T04:29:29.616Z,4.42
2019-02-12T04:31:58.300Z,4.21
2019-02-12T04:34:26.888Z,4.09
2019-02-12T04:36:55.463Z,4.23
2019-02-12T04:39:24.080Z,3.71
2019-02-12T04:41:52.682Z,4.18
2019-02-12T04:44:21.271Z,4.83
2019-02-12T04:46:49.855Z,4.92
2019-02-12T04:49:19.765Z,4.17
2019-02-12T04:51:48.335Z,4.72
2019-02-12T04:54:16.954Z,5.09
2019-02-12T04:56:45.625Z,5.15
2019-02-12T04:59:14.251Z,4.40
2019-02-12T05:01:42.888Z,4.36
2019-02-12T05:04:11.524Z,4.32
2019-02-12T05:06:40.386Z,4.33
2019-02-12T05:09:16.927Z,4.66
2019-02-12T05:11:54.582Z,5.28
2019-02-12T05:14:23.303Z,5.04
2019-02-12T05:16:51.902Z,4.56
2019-02-12T05:19:20.513Z,4.54
2019-02-12T05:21:49.102Z,4.62
2019-02-12T05:24:17.961Z,3.85
2019-02-12T05:26:46.537Z,5.03
2019-02-12T05:29:15.137Z,5.07
2019-02-12T05:31:43.717Z,4.47
2019-02-12T05:34:13.861Z,5.28
2019-02-12T05:36:42.437Z,4.53
2019-02-12T05:39:11.035Z,3.93
2019-02-12T05:41:41.513Z,4.02
2019-02-12T05:44:10.074Z,4.48
2019-02-12T05:46:38.651Z,4.71
2019-02-12T05:49:07.246Z,5.02
2019-02-12T05:51:35.863Z,4.77
2019-02-12T05:54:04.457Z,4.47
2019-02-12T05:56:33.094Z,4.44
2019-02-12T05:59:01.707Z,4.64
2019-02-12T06:01:30.301Z,4.86
2019-02-12T06:03:58.907Z,4.59
2019-02-12T06:06:27.509Z,4.77
2019-02-12T06:08:56.094Z,4.70
2019-02-12T06:11:24.715Z,4.78
2019-02-12T06:13:53.305Z,4.60
2019-02-12T06:16:21.985Z,4.11
2019-02-12T06:18:50.576Z,4.80
2019-02-12T06:21:19.196Z,4.51
2019-02-12T06:23:47.777Z,4.64
2019-02-12T06:26:16.394Z,4.29
2019-02-12T06:28:44.995Z,4.46
2019-02-12T06:31:13.622Z,4.18
2019-02-12T06:33:42.271Z,4.54
2019-02-12T06:36:10.894Z,4.86
2019-02-12T06:38:39.491Z,4.81
2019-02-12T06:41:08.113Z,5.07
2019-02-12T06:43:36.758Z,5.27
2019-02-12T06:46:05.358Z,4.76
2019-02-12T06:48:33.956Z,4.81
2019-02-12T06:51:02.578Z,5.20
2019-02-12T06:53:31.199Z,4.66
2019-02-12T06:55:59.890Z,4.88
2019-02-12T06:58:28.519Z,4.50
2019-02-12T07:00:57.113Z,4.61
2019-02-12T07:03:36.229Z,4.80
2019-02-12T07:06:08.656Z,4.53
2019-02-12T07:09:05.438Z,4.57
2019-02-12T07:12:15.088Z,4.80
2019-02-12T07:14:57.300Z,4.66
2019-02-12T07:17:53.518Z,4.81
2019-02-12T07:20:33.646Z,5.10
2019-02-12T07:23:33.783Z,5.18
2019-02-12T07:26:42.732Z,4.96
2019-02-12T07:29:48.661Z,5.29
2019-02-12T07:33:13.287Z,4.32
2019-02-12T07:36:08.653Z,5.16
2019-02-12T07:39:07.865Z,4.77
2019-02-12T07:41:54.237Z,5.32
2019-02-12T07:45:08.912Z,5.62
2019-02-12T07:48:09.238Z,4.93
2019-02-12T07:50:51.116Z,4.81
2019-02-12T07:53:49.504Z,4.44
2019-02-12T07:56:42.200Z,4.82
2019-02-12T07:59:32.456Z,4.66
2019-02-12T08:02:47.185Z,5.52
2019-02-12T08:05:46.034Z,4.53
2019-02-12T08:09:20.189Z,5.62
2019-02-12T08:12:32.884Z,5.70
2019-02-12T08:15:35.933Z,4.91
2019-02-12T08:18:23.612Z,5.30
2019-02-12T08:21:36.900Z,5.16
2019-02-12T08:24:49.096Z,5.71
2019-02-12T08:27:42.673Z,5.01
2019-02-12T08:30:45.348Z,5.61
2019-02-12T08:33:45.026Z,5.54
2019-02-12T08:36:26.094Z,5.22
2019-02-12T08:39:22.426Z,5.07
2019-02-12T08:42:13.801Z,5.46
2019-02-12T08:45:03.918Z,5.51
2019-02-12T08:47:57.380Z,5.68
2019-02-12T08:50:46.160Z,5.76
2019-02-12T08:54:08.106Z,5.63
2019-02-12T08:57:21.400Z,5.60
2019-02-12T09:00:26.999Z,5.89
2019-02-12T09:03:39.769Z,5.77
2019-02-12T09:06:35.747Z,5.49
2019-02-12T09:09:29.490Z,6.04
2019-02-12T09:12:28.875Z,6.09
2019-02-12T09:15:45.474Z,5.42
2019-02-12T09:18:40.628Z,5.73
2019-02-12T09:21:53.036Z,6.38
2019-02-12T09:24:28.640Z,6.50
2019-02-12T09:27:26.562Z,6.54
2019-02-12T09:30:17.034Z,6.60
2019-02-12T09:33:23.004Z,5.87
2019-02-12T09:36:17.436Z,6.60
2019-02-12T09:39:28.803Z,6.48
2019-02-12T09:42:28.209Z,6.66
2019-02-12T09:45:28.597Z,7.21
2019-02-12T09:48:10.721Z,6.89
2019-02-12T09:51:07.570Z,6.99
2019-02-12T09:54:23.996Z,7.61
2019-02-12T09:57:11.558Z,7.45
2019-02-12T09:59:59.719Z,8.23
2019-02-12T10:03:03.975Z,7.31
2019-02-12T10:06:21.535Z,7.06
2019-02-12T10:09:10.182Z,6.90
2019-02-12T10:12:14.760Z,7.80
2019-02-12T10:15:21.494Z,7.53
2019-02-12T10:18:33.090Z,7.41
2019-02-12T10:21:44.445Z,7.49
2019-02-12T10:24:46.874Z,7.65
2019-02-12T10:27:45.388Z,7.66
2019-02-12T10:30:27.718Z,6.91
2019-02-12T10:32:56.318Z,7.57
2019-02-12T10:35:24.909Z,6.92
2019-02-12T10:37:53.585Z,6.74
2019-02-12T10:40:22.271Z,7.81
2019-02-12T10:42:50.885Z,7.83
2019-02-12T10:45:19.461Z,8.22
2019-02-12T10:47:48.055Z,8.30
2019-02-12T10:50:16.631Z,8.29
2019-02-12T10:52:45.216Z,7.98
2019-02-12T10:55:13.828Z,8.30
2019-02-12T10:57:42.412Z,9.52
2019-02-12T11:00:12.660Z,8.75
2019-02-12T11:02:41.250Z,8.06
2019-02-12T11:05:10.099Z,9.14
2019-02-12T11:07:38.678Z,8.35
2019-02-12T11:10:08.108Z,7.79
2019-02-12T11:12:36.770Z,8.28
2019-02-12T11:15:05.730Z,8.09
2019-02-12T11:17:34.332Z,8.56
2019-02-12T11:20:02.953Z,8.76
2019-02-12T11:22:31.525Z,8.21
2019-02-12T11:25:00.256Z,7.63
2019-02-12T11:27:28.834Z,7.78
2019-02-12T11:29:57.439Z,8.23
2019-02-12T11:32:26.012Z,8.08
2019-02-12T11:34:54.630Z,6.81
2019-02-12T11:37:23.183Z,8.62
2019-02-12T11:39:51.772Z,7.59
2019-02-12T11:42:20.355Z,7.71
2019-02-12T11:44:48.973Z,7.82
2019-02-12T11:47:17.548Z,7.47
2019-02-12T11:49:46.153Z,8.45
2019-02-12T11:52:14.746Z,8.58
2019-02-12T11:54:43.910Z,8.85
2019-02-12T11:57:12.770Z,8.94
2019-02-12T11:59:41.379Z,8.50
2019-02-12T12:02:09.981Z,8.61
2019-02-12T12:04:38.561Z,8.11
2019-02-12T12:07:07.155Z,7.61
2019-02-12T12:09:35.749Z,7.84
2019-02-12T12:12:04.435Z,7.36
2019-02-12T12:14:33.108Z,7.61
2019-02-12T12:17:01.733Z,8.26
2019-02-12T12:19:30.339Z,8.30
2019-02-12T12:21:58.977Z,8.97
2019-02-12T12:24:27.562Z,8.32
2019-02-12T12:26:56.171Z,8.75
2019-02-12T12:29:25.095Z,8.94
2019-02-12T12:31:53.775Z,8.73
2019-02-12T12:34:22.362Z,8.79
2019-02-12T12:36:51.017Z,8.12
2019-02-12T12:39:19.749Z,8.00
2019-02-12T12:41:48.361Z,7.96
2019-02-12T12:44:16.997Z,8.38
2019-02-12T12:46:45.633Z,8.85
2019-02-12T12:49:14.305Z,8.71
2019-02-12T12:51:42.973Z,8.40
2019-02-12T12:54:11.684Z,7.55
2019-02-12T12:56:40.321Z,7.73
2019-02-12T12:59:09.167Z,7.56
2019-02-12T13:01:37.769Z,7.17
2019-02-12T13:04:06.384Z,8.09
2019-02-12T13:06:35.025Z,7.81
2019-02-12T13:09:05.398Z,7.88
2019-02-12T13:11:34.162Z,9.12
2019-02-12T13:14:02.917Z,8.22
2019-02-12T13:16:31.496Z,9.35
2019-02-12T13:19:00.127Z,9.03
2019-02-12T13:21:28.753Z,8.86
2019-02-12T13:23:58.528Z,8.90
2019-02-12T13:26:27.480Z,8.09
2019-02-12T13:28:56.098Z,8.64
2019-02-12T13:31:24.830Z,9.09
2019-02-12T13:33:53.436Z,9.62
2019-02-12T13:36:22.196Z,8.34
2019-02-12T13:38:50.821Z,8.54
2019-02-12T13:41:19.603Z,8.19
2019-02-12T13:43:48.257Z,8.98
2019-02-12T13:46:17.359Z,9.47
2019-02-12T13:48:46.077Z,8.64
2019-02-12T13:51:14.698Z,8.67
2019-02-12T13:53:43.335Z,9.48
2019-02-12T13:56:12.243Z,9.33
2019-02-12T13:58:40.792Z,9.48
2019-02-12T14:01:09.473Z,8.61
2019-02-12T14:03:39.873Z,7.91
2019-02-12T14:06:08.531Z,8.35
2019-02-12T14:08:37.267Z,8.28
2019-02-12T14:11:05.911Z,8.82
2019-02-12T14:13:34.602Z,8.25
2019-02-12T14:16:03.775Z,8.61
2019-02-12T14:18:32.595Z,8.69
2019-02-12T14:21:01.210Z,9.02
2019-02-12T14:23:30.132Z,9.37
2019-02-12T14:25:58.902Z,8.86
2019-02-12T14:28:28.167Z,9.40
2019-02-12T14:30:56.970Z,9.58
2019-02-12T14:33:25.631Z,8.66
2019-02-12T14:35:54.637Z,8.96
2019-02-12T14:38:24.046Z,8.78
2019-02-12T14:40:52.763Z,9.59
2019-02-12T14:43:25.706Z,9.20
2019-02-12T14:45:54.943Z,9.71
2019-02-12T14:48:23.999Z,9.47
2019-02-12T14:50:53.177Z,8.95
2019-02-12T14:53:21.958Z,8.98
2019-02-12T14:55:50.600Z,9.37
2019-02-12T14:58:19.688Z,9.20
2019-02-12T15:00:48.437Z,8.67
2019-02-12T15:03:19.359Z,7.95
2019-02-12T15:05:47.882Z,8.43
2019-02-12T15:08:17.183Z,8.40
2019-02-12T15:10:45.784Z,8.49
2019-02-12T15:13:14.537Z,8.28
2019-02-12T15:15:44.657Z,9.14
2019-02-12T15:18:13.273Z,9.29
2019-02-12T15:20:41.953Z,9.32
2019-02-12T15:23:10.532Z,9.04
2019-02-12T15:25:42.035Z,8.74
2019-02-12T15:28:09.672Z,8.81
2019-02-12T15:30:38.253Z,8.41
2019-02-12T15:33:06.865Z,7.99
2019-02-12T15:35:35.465Z,8.20
2019-02-12T15:38:04.355Z,8.40
2019-02-12T15:40:32.927Z,8.84
2019-02-12T15:43:01.514Z,8.49
2019-02-12T15:45:30.118Z,7.91
2019-02-12T15:47:58.716Z,8.19
2019-02-12T15:50:27.315Z,7.42
2019-02-12T15:52:55.940Z,7.37
2019-02-12T15:55:24.530Z,7.86
2019-02-12T15:57:53.284Z,8.00
2019-02-12T16:00:21.878Z,7.99
2019-02-12T16:02:50.482Z,7.95
2019-02-12T16:05:19.068Z,8.12
2019-02-12T16:07:47.877Z,8.35
2019-02-12T16:10:17.784Z,8.72
2019-02-12T16:12:48.934Z,8.15
2019-02-12T16:15:21.151Z,8.29
2019-02-12T16:17:48.044Z,8.12
2019-02-12T16:20:16.625Z,8.69
2019-02-12T16:22:45.207Z,7.25
2019-02-12T16:25:15.377Z,7.74
2019-02-12T16:27:44.169Z,7.93
2019-02-12T16:30:14.819Z,8.14
2019-02-12T16:32:43.425Z,7.91
2019-02-12T16:35:13.214Z,7.43
2019-02-12T16:37:41.826Z,7.17
2019-02-12T16:40:11.325Z,8.09
2019-02-12T16:42:39.987Z,7.67
2019-02-12T16:45:11.667Z,7.77
2019-02-12T16:47:40.270Z,7.59
2019-02-12T16:50:08.956Z,7.51
2019-02-12T16:52:37.553Z,8.25
2019-02-12T16:55:07.032Z,7.99
2019-02-12T16:57:36.053Z,8.42
2019-02-12T17:00:07.572Z,8.14
2019-02-12T17:02:36.493Z,8.25
2019-02-12T17:05:06.121Z,8.50
2019-02-12T17:07:34.935Z,8.51
2019-02-12T17:10:04.082Z,8.02
2019-02-12T17:12:32.996Z,7.85
2019-02-12T17:15:01.697Z,8.10
2019-02-12T17:17:30.483Z,7.24
2019-02-12T17:19:59.190Z,6.82
2019-02-12T17:22:27.930Z,7.58
2019-02-12T17:24:56.827Z,7.91
2019-02-12T17:27:25.623Z,7.48
2019-02-12T17:29:54.181Z,7.94
2019-02-12T17:32:23.117Z,7.50
2019-02-12T17:34:51.733Z,7.69
2019-02-12T17:37:20.385Z,8.36
2019-02-12T17:39:48.996Z,7.77
2019-02-12T17:42:17.614Z,6.95
2019-02-12T17:44:46.215Z,6.86
2019-02-12T17:47:14.872Z,6.88
2019-02-12T17:49:43.555Z,6.45
2019-02-12T17:52:12.171Z,6.85
2019-02-12T17:54:40.792Z,6.31
2019-02-12T17:57:09.393Z,6.51
2019-02-12T17:59:38.087Z,6.97
2019-02-12T18:02:06.846Z,7.49
2019-02-12T18:04:35.638Z,7.53
2019-02-12T18:07:04.216Z,7.10
2019-02-12T18:09:32.854Z,7.14
2019-02-12T18:12:01.461Z,7.33
2019-02-12T18:14:30.135Z,6.98
2019-02-12T18:16:58.792Z,7.25
2019-02-12T18:19:27.459Z,6.79
2019-02-12T18:21:56.375Z,6.77
2019-02-12T18:24:24.967Z,6.78
2019-02-12T18:26:53.650Z,6.58
2019-02-12T18:29:23.261Z,6.44
2019-02-12T18:31:51.855Z,5.80
2019-02-12T18:34:20.460Z,6.87
2019-02-12T18:36:49.114Z,5.90
2019-02-12T18:39:17.711Z,6.63
2019-02-12T18:41:46.299Z,5.43
2019-02-12T18:44:14.905Z,6.23
2019-02-12T18:46:43.518Z,6.60
2019-02-12T18:49:12.130Z,6.88
2019-02-12T18:51:40.741Z,6.45
2019-02-12T18:54:09.402Z,5.89
2019-02-12T18:56:41.731Z,6.68
2019-02-12T18:59:08.340Z,6.30
2019-02-12T19:01:36.962Z,5.85
2019-02-12T19:04:05.540Z,6.44
2019-02-12T19:06:34.164Z,6.57
2019-02-12T19:09:03.088Z,5.59
2019-02-12T19:11:32.038Z,5.79
2019-02-12T19:14:00.628Z,6.37
2019-02-12T19:16:29.269Z,5.99
2019-02-12T19:18:57.849Z,6.06
2019-02-12T19:21:26.729Z,6.22
2019-02-12T19:23:55.452Z,5.85
2019-02-12T19:26:24.065Z,6.05
2019-02-12T19:28:52.654Z,5.68
2019-02-12T19:31:23.069Z,6.41
2019-02-12T19:33:51.656Z,5.77
2019-02-12T19:36:20.267Z,5.39
2019-02-12T19:38:49.728Z,5.33
2019-02-12T19:41:19.897Z,5.21
2019-02-12T19:43:48.497Z,6.06
2019-02-12T19:46:17.112Z,5.03
2019-02-12T19:48:45.712Z,5.84
2019-02-12T19:51:15.426Z,5.99
2019-02-12T19:53:44.027Z,6.05
2019-02-12T19:56:12.685Z,5.70
2019-02-12T19:58:41.290Z,5.87
2019-02-12T20:01:10.311Z,5.31
2019-02-12T20:03:38.990Z,5.93
2019-02-12T20:06:07.853Z,5.30
2019-02-12T20:08:36.630Z,5.67
2019-02-12T20:11:05.802Z,6.10
2019-02-12T20:13:34.404Z,5.74
2019-02-12T20:16:03.121Z,6.06
2019-02-12T20:18:31.696Z,6.01
2019-02-12T20:21:00.520Z,6.78
2019-02-12T20:23:29.187Z,6.41
2019-02-12T20:25:57.793Z,6.32
2019-02-12T20:28:26.408Z,6.49
2019-02-12T20:30:55.062Z,6.07
2019-02-12T20:33:23.762Z,5.86
2019-02-12T20:35:52.503Z,6.66
2019-02-12T20:38:22.034Z,6.98
2019-02-12T20:40:50.646Z,6.46
2019-02-12T20:43:19.254Z,5.76
2019-02-12T20:45:47.932Z,6.17
2019-02-12T20:48:16.640Z,6.03
2019-02-12T20:50:45.241Z,6.00
2019-02-12T20:53:13.941Z,5.83
2019-02-12T20:55:42.642Z,5.77
2019-02-12T20:58:11.278Z,5.72
2019-02-12T21:00:39.874Z,5.71
2019-02-12T21:03:08.485Z,6.22
2019-02-12T21:05:37.148Z,6.48
2019-02-12T21:08:05.780Z,6.28
2019-02-12T21:10:34.425Z,5.97
2019-02-12T21:13:03.049Z,6.51
2019-02-12T21:15:31.779Z,6.67
2019-02-12T21:18:00.405Z,6.97
2019-02-12T21:20:29.047Z,6.61
2019-02-12T21:22:57.656Z,6.15
2019-02-12T21:25:26.280Z,5.78
2019-02-12T21:27:55.116Z,6.44
2019-02-12T21:30:23.832Z,6.06
2019-02-12T21:32:52.455Z,6.49
2019-02-12T21:35:21.318Z,5.89
2019-02-12T21:37:50.010Z,6.08
2019-02-12T21:40:20.064Z,5.81
2019-02-12T21:42:49.484Z,5.98
2019-02-12T21:45:18.072Z,6.24
2019-02-12T21:47:46.715Z,6.45
2019-02-12T21:50:15.330Z,5.55
2019-02-12T21:52:43.978Z,6.02
2019-02-12T21:55:12.697Z,6.55
2019-02-12T21:57:41.419Z,6.32
2019-02-12T22:00:12.144Z,6.06
2019-02-12T22:02:40.732Z,6.56
2019-02-12T22:05:10.168Z,5.91
2019-02-12T22:07:38.783Z,5.56
2019-02-12T22:10:09.841Z,5.70
2019-02-12T22:12:38.464Z,6.18
2019-02-12T22:15:10.461Z,6.11
2019-02-12T22:17:39.225Z,6.60
2019-02-12T22:20:08.949Z,6.71
2019-02-12T22:22:37.581Z,5.63
2019-02-12T22:25:06.601Z,5.88
2019-02-12T22:27:40.452Z,6.41
2019-02-12T22:30:08.965Z,6.20
2019-02-12T22:32:37.601Z,5.57
2019-02-12T22:35:06.450Z,5.35
2019-02-12T22:37:35.070Z,6.08
2019-02-12T22:40:03.749Z,5.32
2019-02-12T22:42:32.355Z,5.34
2019-02-12T22:45:00.977Z,5.88
2019-02-12T22:47:29.623Z,5.41
2019-02-12T22:49:58.216Z,6.13
2019-02-12T22:52:26.807Z,6.03
2019-02-12T22:54:55.441Z,6.32
2019-02-12T22:57:24.101Z,5.91
2019-02-12T22:59:52.688Z,6.17
2019-02-12T23:02:21.325Z,5.89
2019-02-12T23:04:49.910Z,6.56
2019-02-12T23:07:18.525Z,6.31
2019-02-12T23:09:47.125Z,6.69
2019-02-12T23:12:15.935Z,6.49
2019-02-12T23:14:44.533Z,5.98
2019-02-12T23:17:13.130Z,5.80
2019-02-12T23:19:41.746Z,6.87
2019-02-12T23:22:10.352Z,6.42
2019-02-12T23:24:38.965Z,7.06
2019-02-12T23:27:07.556Z,7.12
2019-02-12T23:29:36.176Z,6.60
2019-02-12T23:32:05.036Z,6.71
2019-02-12T23:34:33.641Z,6.49
2019-02-12T23:37:02.282Z,6.53
2019-02-12T23:39:30.897Z,6.20
2019-02-12T23:41:59.494Z,6.21
2019-02-12T23:44:28.126Z,5.95
2019-02-12T23:46:56.716Z,6.71
2019-02-12T23:49:25.324Z,6.64
2019-02-12T23:51:53.956Z,6.67
2019-02-12T23:54:22.587Z,6.66
2019-02-12T23:56:51.186Z,7.09
2019-02-12T23:59:19.798Z,6.54
